Amburgey, KY

1:46 AM EDT on April 28, 2015 (GMT -0400)
KYTC_RWIS | | Change Station
CLOSE
Current Station
Personal Weather Station
Location: Eolia, KY
Elevation: 2612 ft
Nearby Weather Stations

Elev 2612 ft 37.08 °N, 82.81 °W | Updated 21 minutes ago

Partly Cloudy
Partly Cloudy
42 °F
Feels Like 42 °F
N
2
Wind Variable Wind from NNW
Gusts 0.0 mph

Today
High -- | Low -- °F
--% Chance of Precip.
Yesterday
High -- | Low -- °F
Precip. -- in
6:41 AM 8:18 PM
Waxing Gibbous, 71% visible
Pressure 29.99 in
Visibility 10.0 miles
Clouds Clear
Windchill 42 °F
Dew Point 33 °F
Humidity 68%
Rainfall in
Snow Depth Not available.
UV 0 out of 12
Pollen 9.50 out of 12
Air Quality Not available.
Flu Activity Local Activity
METAR KI35 280535Z AUTO 00000KT 10SM CLR 05/03 A2999 RMK AO1

More Conditions Fewer Conditions

Pressure 29.99 in
Visibility 10.0 miles
Clouds Clear
Windchill 42 °F
Dew Point 33 °F
Humidity 68%
Rainfall in
Snow Depth Not available.
UV 0 out of 12
Pollen 9.50 out of 12
Air Quality Not available.
Flu Activity Local Activity
METAR KI35 280535Z AUTO 00000KT 10SM CLR 05/03 A2999 RMK AO1

More Conditions Fewer Conditions

10-Day Weather Forecast

Almanac

Astronomy

Apr. 28, 2015 Rise Set
Actual Time
Civil Twilight
Nautical Twilight
Astronomical Twilight
Moon
Length of Visible Light
Length of Day
Tomorrow will be .
, % of the Moon is Illuminated

Today's Extremes

State Highs State Lows

Community

WunderPhotos

Upload Photos

1,817,586 photos uploaded!

WunderBlogs® & News

Nearby

Air Quality

  Air Quality AQ Index Pollutant
Not available.

Snow Depth

Station Depth Elevation

Earthquake Activity

City Distance Mag. Time & Date
Minimum magnitude displayed is 2.5.

Coastal Water Temperatures

Place Temperature

Stations

Nearby Weather Stations

Station Location Temp. Windchill Dew Point Humidity Wind Precip. Elev Updated Type